createdAt,value
2018-10-01T00:00:53.017Z,10.81
2018-10-01T00:01:52.973Z,10.82
2018-10-01T00:02:52.937Z,10.84
2018-10-01T00:03:52.896Z,10.82
2018-10-01T00:04:52.854Z,10.84
2018-10-01T00:05:52.813Z,10.82
2018-10-01T00:06:52.780Z,10.82
2018-10-01T00:07:52.741Z,10.79
2018-10-01T00:08:52.705Z,10.79
2018-10-01T00:09:52.660Z,10.90
2018-10-01T00:10:52.625Z,10.79
2018-10-01T00:11:52.590Z,10.79
2018-10-01T00:12:52.551Z,10.81
2018-10-01T00:13:52.510Z,10.87
2018-10-01T00:14:52.471Z,10.86
2018-10-01T00:15:52.439Z,10.89
2018-10-01T00:16:52.390Z,10.92
2018-10-01T00:17:52.350Z,10.93
2018-10-01T00:18:52.314Z,10.84
2018-10-01T00:19:52.281Z,10.79
2018-10-01T00:20:52.240Z,10.82
2018-10-01T00:21:52.203Z,10.84
2018-10-01T00:22:52.163Z,10.86
2018-10-01T00:23:52.131Z,10.86
2018-10-01T00:24:52.087Z,10.86
2018-10-01T00:25:52.047Z,10.81
2018-10-01T00:26:52.007Z,10.84
2018-10-01T00:27:51.966Z,10.81
2018-10-01T00:28:51.928Z,10.79
2018-10-01T00:29:51.886Z,10.72
2018-10-01T00:30:51.851Z,10.69
2018-10-01T00:31:51.814Z,10.68
2018-10-01T00:32:51.777Z,10.72
2018-10-01T00:33:51.738Z,10.67
2018-10-01T00:34:51.698Z,10.61
2018-10-01T00:35:51.673Z,10.72
2018-10-01T00:36:51.619Z,10.76
2018-10-01T00:37:51.577Z,10.74
2018-10-01T00:38:51.543Z,10.71
2018-10-01T00:39:51.512Z,10.74
2018-10-01T00:40:51.471Z,10.75
2018-10-01T00:41:51.421Z,10.74
2018-10-01T00:42:51.386Z,10.69
2018-10-01T00:43:51.349Z,10.75
2018-10-01T00:44:51.314Z,10.78
2018-10-01T00:45:51.274Z,10.71
2018-10-01T00:46:51.233Z,10.69
2018-10-01T00:47:51.193Z,10.71
2018-10-01T00:48:51.152Z,10.76
2018-10-01T00:49:51.114Z,10.72
2018-10-01T00:50:51.077Z,10.68
2018-10-01T00:51:51.044Z,10.71
2018-10-01T00:52:51.005Z,10.69
2018-10-01T00:53:50.965Z,10.69
2018-10-01T00:54:50.926Z,10.87
2018-10-01T00:55:50.881Z,10.79
2018-10-01T00:56:50.845Z,10.84
2018-10-01T00:57:50.808Z,10.89
2018-10-01T00:58:50.770Z,10.79
2018-10-01T00:59:50.735Z,10.87
2018-10-01T01:00:50.690Z,10.81
2018-10-01T01:01:50.650Z,10.84
2018-10-01T01:02:50.617Z,10.84
2018-10-01T01:03:50.579Z,10.79
2018-10-01T01:04:50.539Z,10.86
2018-10-01T01:05:50.507Z,10.82
2018-10-01T01:06:50.470Z,10.82
2018-10-01T01:07:50.418Z,10.87
2018-10-01T01:08:50.380Z,10.81
2018-10-01T01:09:50.343Z,10.87
2018-10-01T01:10:50.303Z,10.84
2018-10-01T01:11:50.272Z,10.92
2018-10-01T01:12:50.230Z,10.79
2018-10-01T01:13:50.194Z,10.81
2018-10-01T01:14:50.160Z,10.78
2018-10-01T01:15:50.115Z,10.64
2018-10-01T01:16:50.075Z,10.60
2018-10-01T01:17:50.039Z,10.60
2018-10-01T01:18:50.000Z,10.61
2018-10-01T01:19:49.959Z,10.68
2018-10-01T01:20:49.918Z,10.61
2018-10-01T01:21:49.878Z,10.59
2018-10-01T01:22:49.838Z,10.42
2018-10-01T01:23:49.810Z,10.41
2018-10-01T01:24:49.765Z,10.46
2018-10-01T01:25:49.730Z,10.48
2018-10-01T01:26:49.691Z,10.46
2018-10-01T01:27:49.647Z,10.38
2018-10-01T01:28:49.609Z,10.42
2018-10-01T01:29:49.586Z,10.41
2018-10-01T01:30:49.547Z,10.54
2018-10-01T01:31:49.489Z,10.54
2018-10-01T01:32:49.460Z,10.46
2018-10-01T01:33:49.413Z,10.41
2018-10-01T01:34:49.373Z,10.41
2018-10-01T01:35:49.341Z,10.46
2018-10-01T01:36:49.299Z,10.51
2018-10-01T01:37:49.260Z,10.46
2018-10-01T01:38:49.225Z,10.60
2018-10-01T01:39:49.183Z,10.61
2018-10-01T01:40:49.146Z,10.61
2018-10-01T01:41:49.107Z,10.61
2018-10-01T01:42:49.069Z,10.64
2018-10-01T01:43:49.031Z,10.64
2018-10-01T01:44:48.994Z,10.60
2018-10-01T01:45:48.961Z,10.57
2018-10-01T01:46:48.909Z,10.56
2018-10-01T01:47:48.879Z,10.61
2018-10-01T01:48:48.835Z,10.69
2018-10-01T01:49:48.797Z,10.68
2018-10-01T01:50:48.761Z,10.69
2018-10-01T01:51:48.718Z,10.74
2018-10-01T01:52:48.679Z,10.61
2018-10-01T01:53:48.640Z,10.59
2018-10-01T01:54:48.598Z,10.64
2018-10-01T01:55:48.569Z,10.64
2018-10-01T01:56:48.525Z,10.60
2018-10-01T01:57:48.487Z,10.76
2018-10-01T01:58:48.451Z,10.76
2018-10-01T01:59:48.408Z,10.69
2018-10-01T02:00:48.368Z,10.72
2018-10-01T02:01:48.332Z,10.74
2018-10-01T02:02:48.295Z,10.69
2018-10-01T02:03:48.250Z,10.75
2018-10-01T02:04:48.217Z,10.82
2018-10-01T02:05:48.178Z,10.78
2018-10-01T02:06:48.135Z,10.74
2018-10-01T02:07:48.105Z,10.75
2018-10-01T02:08:48.063Z,10.69
2018-10-01T02:09:48.023Z,10.72
2018-10-01T02:10:47.986Z,10.68
2018-10-01T02:11:47.941Z,10.71
2018-10-01T02:12:47.906Z,10.67
2018-10-01T02:13:47.869Z,10.71
2018-10-01T02:14:47.827Z,10.69
2018-10-01T02:15:47.792Z,10.69
2018-10-01T02:16:47.759Z,10.64
2018-10-01T02:17:47.714Z,10.69
2018-10-01T02:18:47.671Z,10.64
2018-10-01T02:19:47.647Z,10.67
2018-10-01T02:20:47.605Z,10.64
2018-10-01T02:21:47.557Z,10.60
2018-10-01T02:22:47.524Z,10.69
2018-10-01T02:23:47.479Z,10.64
2018-10-01T02:24:47.441Z,10.59
2018-10-01T02:25:47.404Z,10.60
2018-10-01T02:26:47.362Z,10.60
2018-10-01T02:27:47.329Z,10.61
2018-10-01T02:28:47.294Z,10.56
2018-10-01T02:29:47.251Z,10.53
2018-10-01T02:30:47.214Z,10.53
2018-10-01T02:31:47.171Z,10.57
2018-10-01T02:32:47.134Z,10.61
2018-10-01T02:33:47.095Z,10.53
2018-10-01T02:34:47.060Z,10.60
2018-10-01T02:35:47.014Z,10.53
2018-10-01T02:36:46.977Z,10.57
2018-10-01T02:37:46.947Z,10.48
2018-10-01T02:38:46.897Z,10.49
2018-10-01T02:39:46.866Z,10.54
2018-10-01T02:40:46.828Z,10.54
2018-10-01T02:41:46.790Z,10.53
2018-10-01T02:42:46.748Z,10.53
2018-10-01T02:43:46.704Z,10.57
2018-10-01T02:44:46.676Z,10.53
2018-10-01T02:45:46.628Z,10.59
2018-10-01T02:46:46.594Z,10.57
2018-10-01T02:47:46.647Z,10.49
2018-10-01T02:48:46.517Z,10.54
2018-10-01T02:49:46.474Z,10.54
2018-10-01T02:50:46.432Z,10.59
2018-10-01T02:51:46.405Z,10.57
2018-10-01T02:52:46.360Z,10.60
2018-10-01T02:53:46.325Z,10.51
2018-10-01T02:54:46.284Z,10.60
2018-10-01T02:55:46.239Z,10.56
2018-10-01T02:56:46.202Z,10.51
2018-10-01T02:57:46.163Z,10.56
2018-10-01T02:58:46.122Z,10.53
2018-10-01T02:59:46.090Z,10.41
2018-10-01T03:00:46.056Z,10.53
2018-10-01T03:01:46.012Z,10.42
2018-10-01T03:02:45.974Z,10.53
2018-10-01T03:03:45.931Z,10.54
2018-10-01T03:04:45.894Z,10.51
2018-10-01T03:05:45.854Z,10.53
2018-10-01T03:06:45.820Z,10.56
2018-10-01T03:07:45.773Z,10.51
2018-10-01T03:08:45.738Z,10.53
2018-10-01T03:09:45.697Z,10.57
2018-10-01T03:10:45.662Z,10.49
2018-10-01T03:11:45.626Z,10.57
2018-10-01T03:12:45.582Z,10.56
2018-10-01T03:13:45.546Z,10.57
2018-10-01T03:14:45.508Z,10.53
2018-10-01T03:15:45.462Z,10.51
2018-10-01T03:16:45.425Z,10.56
2018-10-01T03:17:45.387Z,10.41
2018-10-01T03:18:45.346Z,10.54
2018-10-01T03:19:45.315Z,10.51
2018-10-01T03:20:45.273Z,10.37
2018-10-01T03:21:45.231Z,10.56
2018-10-01T03:22:45.192Z,10.44
2018-10-01T03:23:45.158Z,10.42
2018-10-01T03:24:45.121Z,10.53
2018-10-01T03:25:45.079Z,10.38
2018-10-01T03:26:45.041Z,10.44
2018-10-01T03:27:45.011Z,10.44
2018-10-01T03:28:44.963Z,10.41
2018-10-01T03:29:44.921Z,10.40
2018-10-01T03:30:44.885Z,10.44
2018-10-01T03:31:44.851Z,10.46
2018-10-01T03:32:44.808Z,10.40
2018-10-01T03:33:44.769Z,10.38
2018-10-01T03:34:44.733Z,10.38
2018-10-01T03:35:44.687Z,10.41
2018-10-01T03:36:44.654Z,10.31
2018-10-01T03:37:44.612Z,10.31
2018-10-01T03:38:44.578Z,10.20
2018-10-01T03:39:44.534Z,10.26
2018-10-01T03:40:44.501Z,10.17
2018-10-01T03:41:44.461Z,10.23
2018-10-01T03:42:44.421Z,10.22
2018-10-01T03:43:44.384Z,10.23
2018-10-01T03:44:44.342Z,10.28
2018-10-01T03:45:44.304Z,10.28
2018-10-01T03:46:44.269Z,10.26
2018-10-01T03:47:44.223Z,10.25
2018-10-01T03:48:44.184Z,10.28
2018-10-01T03:49:44.144Z,10.20
2018-10-01T03:50:44.104Z,10.22
2018-10-01T03:51:44.073Z,10.20
2018-10-01T03:52:44.031Z,10.28
2018-10-01T04:06:51.194Z,10.22
2018-10-01T04:07:51.136Z,10.22
2018-10-01T04:08:51.107Z,10.23
2018-10-01T04:09:51.031Z,10.23
2018-10-01T04:10:50.988Z,10.23
2018-10-01T04:11:50.948Z,10.20
2018-10-01T04:12:50.912Z,10.16
2018-10-01T04:13:50.867Z,10.30
2018-10-01T04:14:50.823Z,10.30
2018-10-01T04:15:50.782Z,10.19
2018-10-01T04:16:50.756Z,10.17
2018-10-01T04:17:50.707Z,10.23
2018-10-01T04:18:50.666Z,10.16
2018-10-01T04:19:50.627Z,10.25
2018-10-01T04:20:50.580Z,10.19
2018-10-01T04:21:50.543Z,10.23
2018-10-01T04:22:50.580Z,10.23
2018-10-01T04:23:50.463Z,10.26
2018-10-01T04:24:50.434Z,10.23
2018-10-01T04:25:50.385Z,10.17
2018-10-01T04:26:50.347Z,10.19
2018-10-01T04:27:50.326Z,10.15
2018-10-01T04:28:50.261Z,10.19
2018-10-01T04:29:50.225Z,10.17
2018-10-01T04:30:50.188Z,10.20
2018-10-01T04:31:50.152Z,10.17
2018-10-01T04:32:50.109Z,10.15
2018-10-01T04:33:50.068Z,10.17
2018-10-01T04:34:50.030Z,10.17
2018-10-01T04:35:49.986Z,10.20
2018-10-01T04:36:49.953Z,10.22
2018-10-01T04:37:49.911Z,10.15
2018-10-01T04:38:49.875Z,10.15
2018-10-01T04:39:49.833Z,10.17
2018-10-01T04:40:49.845Z,10.17
2018-10-01T04:41:49.752Z,10.19
2018-10-01T04:42:49.711Z,10.20
2018-10-01T04:43:49.674Z,10.17
2018-10-01T04:44:49.636Z,10.20
2018-10-01T04:45:49.602Z,10.12
2018-10-01T04:46:49.616Z,10.13
2018-10-01T04:47:49.548Z,10.23
2018-10-01T04:48:49.479Z,10.28
2018-10-01T04:49:49.446Z,10.19
2018-10-01T04:50:49.413Z,10.22
2018-10-01T04:51:49.363Z,10.17
2018-10-01T04:52:49.324Z,10.17
2018-10-01T04:53:49.282Z,10.17
2018-10-01T04:54:49.245Z,10.22
2018-10-01T04:55:49.204Z,10.17
2018-10-01T04:56:49.172Z,10.17
2018-10-01T04:57:49.131Z,10.19
2018-10-01T04:58:49.099Z,10.25
2018-10-01T04:59:49.051Z,10.20
2018-10-01T05:00:49.009Z,10.17
2018-10-01T05:01:48.968Z,10.19
2018-10-01T05:02:48.939Z,10.13
2018-10-01T05:03:48.895Z,10.17
2018-10-01T05:04:48.853Z,10.13
2018-10-01T05:05:48.813Z,10.22
2018-10-01T05:06:48.774Z,10.19
2018-10-01T05:07:48.739Z,10.17
2018-10-01T05:08:48.698Z,10.17
2018-10-01T05:09:48.663Z,10.20
2018-10-01T05:10:48.623Z,10.17
2018-10-01T05:11:48.581Z,10.15
2018-10-01T05:12:48.541Z,10.23
2018-10-01T05:13:48.502Z,10.13
2018-10-01T05:14:48.521Z,10.13
2018-10-01T05:15:48.423Z,10.19
2018-10-01T05:16:48.397Z,10.20
2018-10-01T05:17:48.349Z,10.22
2018-10-01T05:18:48.304Z,10.15
2018-10-01T05:19:48.266Z,10.19
2018-10-01T05:20:48.231Z,10.20
2018-10-01T05:21:48.192Z,10.13
2018-10-01T05:22:48.153Z,10.09
2018-10-01T05:23:48.112Z,10.15
2018-10-01T05:24:48.072Z,10.05
2018-10-01T05:25:48.045Z,10.13
2018-10-01T05:26:47.991Z,10.15
2018-10-01T05:27:47.954Z,10.19
2018-10-01T05:28:47.916Z,10.26
2018-10-01T05:29:47.893Z,10.16
2018-10-01T05:30:47.844Z,10.22
2018-10-01T05:31:47.801Z,10.15
2018-10-01T05:32:47.759Z,10.19
2018-10-01T05:33:47.716Z,10.22
2018-10-01T05:34:47.686Z,10.16
2018-10-01T05:35:47.651Z,10.15
2018-10-01T05:36:47.609Z,10.19
2018-10-01T05:37:47.609Z,10.20
2018-10-01T05:38:47.523Z,10.13
2018-10-01T05:39:47.485Z,10.09
2018-10-01T05:40:47.451Z,10.02
2018-10-01T05:41:47.414Z,10.09
2018-10-01T05:42:47.379Z,10.12
2018-10-01T05:43:47.335Z,10.10
2018-10-01T05:44:47.299Z,10.07
2018-10-01T05:45:47.258Z,10.12
2018-10-01T05:46:47.216Z,10.16
2018-10-01T05:47:47.173Z,10.20
2018-10-01T05:48:47.138Z,10.20
2018-10-01T05:49:47.104Z,10.17
2018-10-01T05:50:47.059Z,10.19
2018-10-01T05:51:47.017Z,10.16
2018-10-01T05:52:46.981Z,10.20
2018-10-01T05:53:46.946Z,10.22
2018-10-01T05:54:46.904Z,10.22
2018-10-01T05:55:46.868Z,10.17
2018-10-01T05:56:46.827Z,10.17
2018-10-01T05:57:46.810Z,10.22
2018-10-01T05:58:46.743Z,10.22
2018-10-01T05:59:46.704Z,10.17
2018-10-01T06:00:46.669Z,10.19
2018-10-01T06:01:46.633Z,10.12
2018-10-01T06:02:46.591Z,10.22
2018-10-01T06:03:46.552Z,10.30
2018-10-01T06:04:46.555Z,10.20
2018-10-01T06:05:46.467Z,10.17
2018-10-01T06:06:46.435Z,10.25
2018-10-01T06:07:46.393Z,10.25
2018-10-01T06:08:46.353Z,10.30
2018-10-01T06:09:46.312Z,10.20
2018-10-01T06:10:46.276Z,10.22
2018-10-01T06:11:46.269Z,10.19
2018-10-01T06:12:46.199Z,10.22
2018-10-01T06:13:46.165Z,10.26
2018-10-01T06:14:46.127Z,10.22
2018-10-01T06:15:46.088Z,10.23
2018-10-01T06:16:46.045Z,10.12
2018-10-01T06:17:46.000Z,10.26
2018-10-01T06:18:45.964Z,10.09
2018-10-01T06:19:45.930Z,10.16
2018-10-01T06:20:45.887Z,10.16
2018-10-01T06:21:45.854Z,10.13
2018-10-01T06:22:45.809Z,10.13
2018-10-01T06:23:45.777Z,10.10
2018-10-01T06:24:45.735Z,10.15
2018-10-01T06:25:45.701Z,10.12
2018-10-01T06:26:45.655Z,10.07
2018-10-01T06:27:45.613Z,10.16
2018-10-01T06:28:45.572Z,10.04
2018-10-01T06:29:45.532Z,10.15
2018-10-01T06:30:45.496Z,10.17
2018-10-01T06:31:45.454Z,10.07
2018-10-01T06:32:45.427Z,10.04
2018-10-01T06:33:45.386Z,10.04
2018-10-01T06:34:45.344Z,10.07
2018-10-01T06:35:45.302Z,10.04
2018-10-01T06:36:45.262Z,10.02
2018-10-01T06:37:45.219Z,10.10
2018-10-01T06:38:45.186Z,10.10
2018-10-01T06:39:45.144Z,10.13
2018-10-01T06:40:45.104Z,10.10
2018-10-01T06:41:45.105Z,10.10
2018-10-01T06:42:45.053Z,10.09
2018-10-01T06:43:45.013Z,10.13
2018-10-01T06:44:44.957Z,10.20
2018-10-01T06:45:45.744Z,10.25
2018-10-01T06:46:44.873Z,10.13
2018-10-01T06:47:44.831Z,10.17
2018-10-01T06:48:44.790Z,10.19
2018-10-01T06:49:44.749Z,10.17
2018-10-01T06:50:44.747Z,10.22
2018-10-01T06:51:44.675Z,10.26
2018-10-01T06:52:44.639Z,10.19
2018-10-01T06:53:44.599Z,10.15
2018-10-01T06:54:44.555Z,10.16
2018-10-01T06:55:44.516Z,10.19
2018-10-01T06:56:44.480Z,10.20
2018-10-01T06:57:44.442Z,10.16
2018-10-01T06:58:44.408Z,10.19
2018-10-01T06:59:44.363Z,10.23
2018-10-01T07:00:44.321Z,10.22
2018-10-01T07:01:44.279Z,10.22
2018-10-01T07:02:44.239Z,10.28
2018-10-01T07:03:44.202Z,10.23
2018-10-01T07:04:44.167Z,10.31
2018-10-01T07:05:44.174Z,10.35
2018-10-01T07:06:44.091Z,10.34
2018-10-01T07:07:44.053Z,10.33
2018-10-01T07:08:44.011Z,10.37
2018-10-01T07:09:43.970Z,10.41
2018-10-01T07:10:43.936Z,10.46
2018-10-01T07:11:43.931Z,10.41
2018-10-01T07:12:43.853Z,10.35
2018-10-01T07:13:43.812Z,10.40
2018-10-01T07:14:43.774Z,10.40
2018-10-01T07:15:43.736Z,10.51
2018-10-01T07:16:43.703Z,10.54
2018-10-01T07:17:43.665Z,10.67
2018-10-01T07:18:43.624Z,10.75
2018-10-01T07:19:43.603Z,10.72
2018-10-01T07:20:43.541Z,10.68
2018-10-01T07:21:43.503Z,10.72
2018-10-01T07:22:43.527Z,10.74
2018-10-01T07:23:43.425Z,10.72
2018-10-01T07:24:43.389Z,10.74
2018-10-01T07:25:43.353Z,10.76
2018-10-01T07:26:43.309Z,10.71
2018-10-01T07:27:43.276Z,10.76
2018-10-01T07:28:43.235Z,10.72
2018-10-01T07:29:43.197Z,10.71
2018-10-01T07:30:43.159Z,10.76
2018-10-01T07:31:43.117Z,10.64
2018-10-01T07:32:43.076Z,10.57
2018-10-01T07:33:43.038Z,10.56
2018-10-01T07:34:42.997Z,10.53
2018-10-01T07:35:42.960Z,10.57
2018-10-01T07:36:42.977Z,10.61
2018-10-01T07:37:42.887Z,10.61
2018-10-01T07:38:42.848Z,10.72
2018-10-01T07:39:42.808Z,10.87
2018-10-01T07:40:42.768Z,10.79
2018-10-01T07:41:42.727Z,10.84
2018-10-01T07:42:42.698Z,10.87
2018-10-01T07:43:42.652Z,10.96
2018-10-01T07:44:42.664Z,10.97
2018-10-01T07:45:42.573Z,10.99
2018-10-01T07:46:42.532Z,11.02
2018-10-01T07:47:42.499Z,10.99
2018-10-01T07:48:42.462Z,10.99
2018-10-01T07:49:42.423Z,10.97
2018-10-01T07:50:42.426Z,10.94
2018-10-01T07:51:42.342Z,10.96
2018-10-01T07:52:42.302Z,10.94
2018-10-01T07:53:42.262Z,10.97
2018-10-01T07:54:42.223Z,10.97
2018-10-01T07:55:42.187Z,10.92
2018-10-01T07:56:42.153Z,10.99
2018-10-01T07:57:42.120Z,11.07
2018-10-01T07:58:42.069Z,10.99
2018-10-01T07:59:42.119Z,11.07
2018-10-01T08:00:41.996Z,11.11
2018-10-01T08:01:41.959Z,11.18
2018-10-01T08:02:41.921Z,11.19
2018-10-01T08:03:41.883Z,11.19
2018-10-01T08:04:41.840Z,11.19
2018-10-01T08:05:41.801Z,11.19
2018-10-01T08:06:41.761Z,11.19
2018-10-01T08:07:41.724Z,11.27
2018-10-01T08:08:41.706Z,11.30
2018-10-01T08:09:41.658Z,11.37
2018-10-01T08:10:41.617Z,11.35
2018-10-01T08:11:41.574Z,11.35
2018-10-01T08:12:41.537Z,11.44
2018-10-01T08:13:41.498Z,11.45
2018-10-01T08:14:41.465Z,11.44
2018-10-01T08:15:41.462Z,11.41
2018-10-01T08:16:41.380Z,11.47
2018-10-01T08:17:41.342Z,11.52
2018-10-01T08:18:41.306Z,11.55
2018-10-01T08:19:41.264Z,11.60
2018-10-01T08:20:41.326Z,11.62
2018-10-01T08:21:41.196Z,11.65
2018-10-01T08:22:41.155Z,11.52
2018-10-01T08:23:41.164Z,11.51
2018-10-01T08:24:41.074Z,11.48
2018-10-01T08:25:41.035Z,11.52
2018-10-01T08:26:41.067Z,11.59
2018-10-01T08:27:40.959Z,11.72
2018-10-01T08:28:40.928Z,11.68
2018-10-01T08:29:40.996Z,11.80
2018-10-01T08:30:40.844Z,11.83
2018-10-01T08:31:40.806Z,11.83
2018-10-01T08:32:40.804Z,11.90
2018-10-01T08:33:40.738Z,11.95
2018-10-01T08:34:40.696Z,11.99
2018-10-01T08:35:40.656Z,12.00
2018-10-01T08:36:40.615Z,11.99
2018-10-01T08:37:40.580Z,11.97
2018-10-01T08:38:40.633Z,11.81
2018-10-01T08:39:40.502Z,11.91
2018-10-01T08:40:40.471Z,11.87
2018-10-01T08:41:40.430Z,11.77
2018-10-01T08:42:40.394Z,11.94
2018-10-01T08:43:40.352Z,12.02
2018-10-01T08:44:40.318Z,11.97
2018-10-01T08:45:40.280Z,11.99
2018-10-01T08:46:40.239Z,11.99
2018-10-01T08:47:40.240Z,12.00
2018-10-01T08:48:40.161Z,11.95
2018-10-01T08:49:40.126Z,11.86
2018-10-01T08:50:40.082Z,11.81
2018-10-01T08:51:40.091Z,11.84
2018-10-01T08:52:40.014Z,11.83
2018-10-01T08:53:39.972Z,11.80
2018-10-01T08:54:39.934Z,11.84
2018-10-01T08:55:39.896Z,11.73
2018-10-01T08:56:39.853Z,11.77
2018-10-01T08:57:39.816Z,11.80
2018-10-01T08:58:39.779Z,11.90
2018-10-01T08:59:39.737Z,12.06
2018-10-01T09:00:39.707Z,12.09
2018-10-01T09:01:39.668Z,12.04
2018-10-01T09:02:39.665Z,12.12
2018-10-01T09:03:39.584Z,12.13
2018-10-01T09:04:39.553Z,12.06
2018-10-01T09:05:39.518Z,11.95
2018-10-01T09:06:39.527Z,12.09
2018-10-01T09:07:39.441Z,12.10
2018-10-01T09:08:39.398Z,12.07
2018-10-01T09:09:39.360Z,12.17
2018-10-01T09:10:39.321Z,12.28
2018-10-01T09:11:39.284Z,12.49
2018-10-01T09:12:39.249Z,12.54
2018-10-01T09:13:39.212Z,12.64
2018-10-01T09:14:39.252Z,12.54
2018-10-01T09:15:39.143Z,12.43
2018-10-01T09:16:39.097Z,12.49
2018-10-01T09:17:39.057Z,12.32
2018-10-01T09:18:39.023Z,12.35
2018-10-01T09:19:38.985Z,12.27
2018-10-01T09:20:38.975Z,12.24
2018-10-01T09:21:38.925Z,12.10
2018-10-01T09:22:38.868Z,12.00
2018-10-01T09:23:38.870Z,11.94
2018-10-01T09:24:38.797Z,12.06
2018-10-01T09:25:38.756Z,11.97
2018-10-01T09:26:38.733Z,12.04
2018-10-01T09:27:38.681Z,12.10
2018-10-01T09:28:38.643Z,11.97
2018-10-01T09:29:38.632Z,12.04
2018-10-01T09:30:38.576Z,12.22
2018-10-01T09:31:38.526Z,12.27
2018-10-01T09:32:38.537Z,12.22
2018-10-01T09:33:38.462Z,12.39
2018-10-01T09:34:38.413Z,12.36
2018-10-01T09:35:38.406Z,12.32
2018-10-01T09:36:38.349Z,12.25
2018-10-01T09:37:38.301Z,12.22
2018-10-01T09:38:38.365Z,12.22
2018-10-01T09:39:38.227Z,12.29
2018-10-01T09:40:38.208Z,12.40
2018-10-01T09:41:38.149Z,12.49
2018-10-01T09:42:38.113Z,12.61
2018-10-01T09:43:38.073Z,12.55
2018-10-01T09:44:38.138Z,12.64
2018-10-01T09:45:37.999Z,12.58
2018-10-01T09:46:38.015Z,12.50
2018-10-01T09:47:37.926Z,12.53
2018-10-01T09:48:37.882Z,12.53
2018-10-01T09:49:37.848Z,12.46
2018-10-01T09:50:37.812Z,12.37
2018-10-01T09:51:37.776Z,12.35
2018-10-01T09:52:37.732Z,12.37
2018-10-01T09:53:37.701Z,12.31
2018-10-01T09:54:37.661Z,12.25
2018-10-01T09:55:37.619Z,12.27
2018-10-01T09:56:37.602Z,12.22
2018-10-01T09:57:37.551Z,12.37
2018-10-01T09:58:37.597Z,12.45
2018-10-01T09:59:37.474Z,12.46
2018-10-01T10:00:37.430Z,12.61
2018-10-01T10:01:37.396Z,12.70
2018-10-01T10:02:37.439Z,12.80
2018-10-01T10:03:37.318Z,12.91
2018-10-01T10:04:37.390Z,12.93
2018-10-01T10:05:37.247Z,13.04
2018-10-01T10:06:37.207Z,13.13
2018-10-01T10:21:01.564Z,12.68
2018-10-01T10:22:01.549Z,12.60
2018-10-01T10:23:01.453Z,12.61
2018-10-01T10:24:01.411Z,12.60
2018-10-01T10:25:01.376Z,12.47
2018-10-01T10:26:01.359Z,12.50
2018-10-01T10:27:01.364Z,12.36
2018-10-01T10:28:01.282Z,12.37
2018-10-01T10:29:01.210Z,12.36
2018-10-01T10:30:01.171Z,12.31
2018-10-01T10:31:01.139Z,12.28
2018-10-01T10:32:01.104Z,12.36
2018-10-01T10:33:01.054Z,12.58
2018-10-01T10:34:01.036Z,12.78
2018-10-01T10:35:00.977Z,12.93
2018-10-01T10:36:00.938Z,12.97
2018-10-01T10:37:00.905Z,13.05
2018-10-01T10:38:00.919Z,13.05
2018-10-01T10:39:00.826Z,13.04
2018-10-01T10:40:00.791Z,13.13
2018-10-01T10:41:00.748Z,13.12
2018-10-01T10:42:00.711Z,13.08
2018-10-01T10:43:00.674Z,12.98
2018-10-01T10:44:00.660Z,12.95
2018-10-01T10:45:00.601Z,12.79
2018-10-01T10:46:00.560Z,12.79
2018-10-01T10:47:00.522Z,12.72
2018-10-01T10:48:00.494Z,12.61
2018-10-01T10:49:00.449Z,12.70
2018-10-01T10:50:00.412Z,12.58
2018-10-01T10:51:00.373Z,12.61
2018-10-01T10:52:00.336Z,12.43
2018-10-01T10:53:00.293Z,12.39
2018-10-01T10:54:00.259Z,12.39
2018-10-01T10:55:00.218Z,12.36
2018-10-01T10:56:00.219Z,12.17
2018-10-01T10:57:00.194Z,12.06
2018-10-01T10:58:00.119Z,12.02
2018-10-01T10:59:00.078Z,12.00
2018-10-01T11:00:00.035Z,12.10
2018-10-01T11:00:59.997Z,11.99
2018-10-01T11:01:59.965Z,11.86
2018-10-01T11:02:59.922Z,11.87
2018-10-01T11:03:59.882Z,11.68
2018-10-01T11:04:59.842Z,11.54
2018-10-01T11:05:59.804Z,11.50
2018-10-01T11:06:59.811Z,11.44
2018-10-01T11:07:59.781Z,11.41
2018-10-01T11:08:59.694Z,11.32
2018-10-01T11:09:59.656Z,11.22
2018-10-01T11:10:59.619Z,11.17
2018-10-01T11:11:59.579Z,11.15
2018-10-01T11:12:59.544Z,10.86
2018-10-01T11:13:59.565Z,10.96
2018-10-01T11:14:59.565Z,10.82
2018-10-01T11:15:59.425Z,10.60
2018-10-01T11:16:59.394Z,10.54
2018-10-01T11:17:59.416Z,10.67
2018-10-01T11:18:59.450Z,10.74
2018-10-01T11:19:59.326Z,10.59
2018-10-01T11:20:59.266Z,10.59
2018-10-01T11:21:59.272Z,10.56
2018-10-01T11:22:59.184Z,10.57
2018-10-01T11:23:59.127Z,10.56
2018-10-01T11:24:59.603Z,10.59
2018-10-01T11:25:59.043Z,10.67
2018-10-01T11:26:59.065Z,10.60
2018-10-01T11:27:58.967Z,10.74
2018-10-01T11:28:59.019Z,10.90
2018-10-01T11:29:58.900Z,10.97
2018-10-01T11:30:58.853Z,11.11
2018-10-01T11:31:58.829Z,11.12
2018-10-01T11:32:58.864Z,11.19
2018-10-01T11:33:58.734Z,11.33
2018-10-01T11:34:58.747Z,11.47
2018-10-01T11:35:58.666Z,11.62
2018-10-01T11:36:58.623Z,11.70
2018-10-01T11:37:58.581Z,11.77
2018-10-01T11:38:58.584Z,11.80
2018-10-01T11:39:58.515Z,11.81
2018-10-01T11:40:58.474Z,11.84
2018-10-01T11:41:58.433Z,11.72
2018-10-01T11:42:58.397Z,11.55
2018-10-01T11:43:58.357Z,11.50
2018-10-01T11:44:58.375Z,11.22
2018-10-01T11:45:58.284Z,11.11
2018-10-01T11:46:58.242Z,11.07
2018-10-01T11:47:58.203Z,11.10
2018-10-01T11:48:58.171Z,11.10
2018-10-01T11:49:58.131Z,10.92
2018-10-01T11:50:58.092Z,10.92
2018-10-01T11:51:58.051Z,10.94
2018-10-01T11:52:58.016Z,10.92
2018-10-01T11:53:57.977Z,10.78
2018-10-01T11:54:57.941Z,10.89
2018-10-01T11:55:57.902Z,10.94
2018-10-01T11:56:57.932Z,11.07
2018-10-01T11:57:57.826Z,11.08
2018-10-01T11:58:57.783Z,11.10
2018-10-01T11:59:57.744Z,11.18
2018-10-01T12:00:57.709Z,11.18
2018-10-01T12:01:57.671Z,11.25
2018-10-01T12:02:57.677Z,11.37
2018-10-01T12:03:57.605Z,11.37
2018-10-01T12:04:57.558Z,11.50
2018-10-01T12:05:57.525Z,11.59
2018-10-01T12:06:57.483Z,11.65
2018-10-01T12:07:57.440Z,11.83
2018-10-01T12:08:57.412Z,11.90
2018-10-01T12:09:57.514Z,11.99
2018-10-01T12:10:57.327Z,11.99
2018-10-01T12:11:57.286Z,11.91
2018-10-01T12:12:57.251Z,11.87
2018-10-01T12:13:57.216Z,11.99
2018-10-01T12:14:57.275Z,11.95
2018-10-01T12:15:57.304Z,12.04
2018-10-01T12:16:57.097Z,12.06
2018-10-01T12:17:57.057Z,11.91
2018-10-01T12:18:57.018Z,12.02
2018-10-01T12:19:56.985Z,11.86
2018-10-01T12:20:57.013Z,11.55
2018-10-01T12:21:56.960Z,10.86
2018-10-01T12:22:56.872Z,10.04
2018-10-01T12:23:56.832Z,9.76
2018-10-01T12:24:56.801Z,9.65
2018-10-01T12:25:56.766Z,9.51
2018-10-01T12:26:56.736Z,9.51
2018-10-01T12:27:56.683Z,9.47
2018-10-01T12:28:56.646Z,9.51
2018-10-01T12:29:56.597Z,9.55
2018-10-01T12:30:56.559Z,9.46
2018-10-01T12:31:56.524Z,9.55
2018-10-01T12:32:56.550Z,9.44
2018-10-01T12:33:56.449Z,9.46
2018-10-01T12:34:56.414Z,9.46
2018-10-01T12:35:56.368Z,9.44
2018-10-01T12:36:56.331Z,9.43
2018-10-01T12:37:56.296Z,9.55
2018-10-01T12:38:56.269Z,9.56
2018-10-01T12:39:56.213Z,9.69
2018-10-01T12:40:56.170Z,9.69
2018-10-01T12:41:56.129Z,9.54
2018-10-01T12:42:56.191Z,9.55
2018-10-01T12:43:56.069Z,9.72
2018-10-01T12:44:56.023Z,9.69
2018-10-01T12:45:55.980Z,9.80
2018-10-01T12:46:55.937Z,9.95
2018-10-01T12:47:55.907Z,9.99
2018-10-01T12:48:55.855Z,10.05
2018-10-01T12:49:55.815Z,10.10
2018-10-01T12:50:55.883Z,10.12
2018-10-01T12:51:55.744Z,10.15
2018-10-01T12:52:55.701Z,10.09
2018-10-01T12:53:55.666Z,10.09
2018-10-01T12:54:55.619Z,10.16
2018-10-01T12:55:55.581Z,10.07
2018-10-01T12:56:55.577Z,10.23
2018-10-01T12:57:55.509Z,10.25
2018-10-01T12:58:55.476Z,10.34
2018-10-01T12:59:55.428Z,10.37
2018-10-01T13:00:55.385Z,10.53
2018-10-01T13:01:55.349Z,10.51
2018-10-01T13:02:55.306Z,10.60
2018-10-01T13:03:55.268Z,10.68
2018-10-01T13:04:55.269Z,10.74
2018-10-01T13:05:55.192Z,10.81
2018-10-01T13:06:55.158Z,10.87
2018-10-01T13:07:55.118Z,10.94
2018-10-01T13:08:55.074Z,10.96
2018-10-01T13:09:55.032Z,11.00
2018-10-01T13:10:55.004Z,11.10
2018-10-01T13:11:54.984Z,11.19
2018-10-01T13:12:54.921Z,11.18
2018-10-01T13:13:54.875Z,11.25
2018-10-01T13:14:54.837Z,11.32
2018-10-01T13:15:54.799Z,11.36
2018-10-01T13:16:54.767Z,11.23
2018-10-01T13:17:54.737Z,11.30
2018-10-01T13:18:54.687Z,11.22
2018-10-01T13:19:54.645Z,11.15